createdAt,value
2018-12-20T00:01:21.985Z,0.40
2018-12-20T00:03:49.712Z,0.40
2018-12-20T00:06:17.399Z,0.40
2018-12-20T00:08:45.404Z,0.40
2018-12-20T00:11:13.329Z,0.50
2018-12-20T00:13:41.069Z,0.40
2018-12-20T00:16:08.785Z,0.50
2018-12-20T00:18:36.643Z,0.60
2018-12-20T00:21:04.403Z,0.60
2018-12-20T00:23:32.333Z,0.70
2018-12-20T00:28:40.895Z,0.80
2018-12-20T00:31:13.616Z,1.00
2018-12-20T00:33:38.123Z,1.10
2018-12-20T00:36:05.894Z,1.10
2018-12-20T00:38:33.504Z,1.20
2018-12-20T00:41:01.049Z,1.30
2018-12-20T00:43:29.103Z,1.30
2018-12-20T00:45:56.753Z,1.40
2018-12-20T00:48:24.314Z,1.40
2018-12-20T00:50:51.949Z,1.50
2018-12-20T00:53:19.555Z,1.50
2018-12-20T00:55:47.225Z,1.50
2018-12-20T00:58:14.867Z,1.50
2018-12-20T01:00:42.477Z,1.60
2018-12-20T01:03:10.157Z,1.60
2018-12-20T01:05:38.050Z,1.60
2018-12-20T01:08:05.711Z,1.60
2018-12-20T01:10:33.599Z,1.60
2018-12-20T01:13:01.163Z,1.60
2018-12-20T01:15:28.672Z,1.60
2018-12-20T01:17:56.390Z,1.60
2018-12-20T01:20:24.002Z,1.60
2018-12-20T01:22:51.551Z,1.60
2018-12-20T01:25:19.211Z,1.60
2018-12-20T01:27:46.858Z,1.60
2018-12-20T01:30:14.495Z,1.60
2018-12-20T01:32:42.172Z,1.60
2018-12-20T01:35:09.843Z,1.60
2018-12-20T01:37:37.512Z,1.70
2018-12-20T01:40:05.641Z,1.70
2018-12-20T01:42:33.345Z,1.70
2018-12-20T01:45:00.884Z,1.80
2018-12-20T01:47:28.411Z,1.80
2018-12-20T01:49:56.662Z,1.80
2018-12-20T01:52:24.566Z,1.80
2018-12-20T01:54:52.158Z,1.80
2018-12-20T01:57:19.667Z,1.90
2018-12-20T01:59:47.327Z,1.90
2018-12-20T02:02:14.864Z,1.90
2018-12-20T02:04:42.388Z,1.90
2018-12-20T02:07:10.258Z,1.90
2018-12-20T02:09:37.889Z,1.90
2018-12-20T02:12:05.533Z,1.90
2018-12-20T02:14:33.160Z,1.90
2018-12-20T02:17:00.854Z,2.00
2018-12-20T02:19:28.790Z,2.00
2018-12-20T02:21:56.361Z,2.00
2018-12-20T02:24:23.907Z,2.10
2018-12-20T02:26:51.561Z,2.10
2018-12-20T02:29:19.148Z,2.10
2018-12-20T02:31:47.069Z,2.10
2018-12-20T02:34:14.812Z,2.10
2018-12-20T02:36:43.065Z,2.20
2018-12-20T02:39:10.727Z,2.10
2018-12-20T02:41:38.288Z,2.10
2018-12-20T02:44:05.876Z,2.10
2018-12-20T02:46:33.447Z,2.20
2018-12-20T02:49:01.070Z,2.20
2018-12-20T02:51:28.708Z,2.20
2018-12-20T02:53:56.294Z,2.20
2018-12-20T02:56:23.941Z,2.20
2018-12-20T02:58:51.492Z,2.20
2018-12-20T03:01:19.127Z,2.10
2018-12-20T03:03:46.778Z,2.10
2018-12-20T03:06:14.546Z,2.10
2018-12-20T03:08:42.139Z,2.10
2018-12-20T03:11:09.893Z,2.20
2018-12-20T03:13:37.448Z,2.20
2018-12-20T03:16:04.981Z,2.20
2018-12-20T03:18:32.578Z,2.20
2018-12-20T03:21:00.170Z,2.20
2018-12-20T03:23:27.804Z,2.30
2018-12-20T03:25:55.398Z,2.30
2018-12-20T03:28:23.068Z,2.30
2018-12-20T03:30:50.638Z,2.30
2018-12-20T03:33:18.563Z,2.30
2018-12-20T03:35:46.262Z,2.30
2018-12-20T03:38:13.893Z,2.30
2018-12-20T03:40:41.696Z,2.30
2018-12-20T03:43:09.354Z,2.30
2018-12-20T03:45:36.902Z,2.30
2018-12-20T03:48:04.542Z,2.20
2018-12-20T03:50:32.276Z,2.20
2018-12-20T03:52:59.943Z,2.20
2018-12-20T03:55:27.890Z,2.20
2018-12-20T03:57:55.531Z,2.10
2018-12-20T04:00:23.046Z,2.10
2018-12-20T04:02:50.686Z,2.10
2018-12-20T04:05:19.581Z,2.10
2018-12-20T04:07:47.350Z,2.20
2018-12-20T04:10:14.964Z,2.20
2018-12-20T04:12:42.553Z,2.30
2018-12-20T04:15:10.072Z,2.30
2018-12-20T04:17:37.585Z,2.30
2018-12-20T04:20:05.480Z,2.40
2018-12-20T04:22:33.448Z,2.40
2018-12-20T04:25:01.326Z,2.40
2018-12-20T04:27:28.964Z,2.40
2018-12-20T04:29:56.724Z,2.40
2018-12-20T04:32:24.277Z,2.40
2018-12-20T04:34:51.946Z,2.40
2018-12-20T04:37:19.523Z,2.50
2018-12-20T04:39:47.062Z,2.50
2018-12-20T04:42:14.594Z,2.50
2018-12-20T04:44:42.266Z,2.50
2018-12-20T04:47:10.181Z,2.50
2018-12-20T04:49:37.906Z,2.50
2018-12-20T04:52:05.476Z,2.60
2018-12-20T04:54:33.157Z,2.60
2018-12-20T04:57:00.725Z,2.60
2018-12-20T04:59:28.301Z,2.60
2018-12-20T05:01:55.924Z,2.50
2018-12-20T05:04:23.798Z,2.50
2018-12-20T05:06:51.361Z,2.50
2018-12-20T05:09:19.169Z,2.40
2018-12-20T05:11:46.989Z,2.40
2018-12-20T05:14:14.526Z,2.30
2018-12-20T05:16:42.407Z,2.30
2018-12-20T05:19:10.165Z,2.30
2018-12-20T05:24:07.288Z,2.40
2018-12-20T05:26:34.787Z,2.40
2018-12-20T05:29:02.470Z,2.40
2018-12-20T05:31:30.055Z,2.40
2018-12-20T05:33:57.656Z,2.40
2018-12-20T05:36:25.409Z,2.50
2018-12-20T05:38:53.048Z,2.50
2018-12-20T05:41:20.643Z,2.50
2018-12-20T05:43:48.422Z,2.50
2018-12-20T05:46:16.173Z,2.50
2018-12-20T05:48:44.131Z,2.60
2018-12-20T05:51:11.805Z,2.70
2018-12-20T05:53:39.415Z,2.80
2018-12-20T05:56:07.049Z,2.90
2018-12-20T05:58:34.625Z,3.00
2018-12-20T06:01:02.320Z,3.00
2018-12-20T06:03:30.083Z,3.00
2018-12-20T06:05:57.706Z,3.10
2018-12-20T06:08:25.288Z,3.10
2018-12-20T06:10:52.953Z,3.10
2018-12-20T06:13:20.632Z,3.10
2018-12-20T06:15:48.164Z,3.10
2018-12-20T06:18:15.768Z,3.10
2018-12-20T06:20:43.306Z,3.00
2018-12-20T06:23:11.181Z,3.00
2018-12-20T06:25:38.953Z,3.00
2018-12-20T06:28:06.477Z,2.90
2018-12-20T06:30:34.008Z,2.90
2018-12-20T06:33:01.512Z,2.90
2018-12-20T06:35:29.085Z,2.90
2018-12-20T06:37:57.697Z,2.90
2018-12-20T06:40:25.235Z,2.90
2018-12-20T06:42:52.762Z,2.90
2018-12-20T06:45:20.251Z,2.90
2018-12-20T06:47:47.958Z,2.90
2018-12-20T06:50:15.484Z,2.80
2018-12-20T06:52:43.019Z,2.80
2018-12-20T06:55:10.536Z,2.80
2018-12-20T06:57:38.114Z,2.90
2018-12-20T07:00:07.675Z,2.80
2018-12-20T07:02:35.289Z,2.90
2018-12-20T07:05:02.804Z,2.90
2018-12-20T07:07:30.319Z,2.90
2018-12-20T07:09:57.883Z,2.80
2018-12-20T07:12:25.410Z,2.80
2018-12-20T07:14:52.920Z,2.80
2018-12-20T07:17:20.434Z,2.80
2018-12-20T07:19:47.947Z,2.80
2018-12-20T07:22:15.501Z,2.80
2018-12-20T07:24:43.003Z,2.70
2018-12-20T07:27:10.934Z,2.70
2018-12-20T07:29:38.440Z,2.70
2018-12-20T07:32:05.975Z,2.70
2018-12-20T07:34:33.499Z,2.70
2018-12-20T07:37:01.011Z,2.60
2018-12-20T07:39:30.104Z,2.60
2018-12-20T07:41:57.604Z,2.70
2018-12-20T07:44:25.293Z,2.70
2018-12-20T07:46:52.888Z,2.70
2018-12-20T07:49:20.400Z,2.80
2018-12-20T07:51:47.915Z,2.90
2018-12-20T07:54:15.423Z,3.00
2018-12-20T07:56:42.950Z,3.10
2018-12-20T07:59:10.474Z,3.20
2018-12-20T08:01:37.986Z,3.30
2018-12-20T08:04:05.558Z,3.50
2018-12-20T08:06:33.086Z,3.60
2018-12-20T08:09:00.600Z,3.70
2018-12-20T08:11:28.191Z,3.70
2018-12-20T08:13:55.702Z,3.80
2018-12-20T08:16:23.575Z,3.80
2018-12-20T08:18:51.095Z,3.70
2018-12-20T08:21:18.599Z,3.70
2018-12-20T08:23:46.127Z,3.60
2018-12-20T08:26:13.741Z,3.60
2018-12-20T08:28:41.245Z,3.60
2018-12-20T08:31:08.845Z,3.50
2018-12-20T08:33:36.363Z,3.40
2018-12-20T08:36:03.956Z,3.40
2018-12-20T08:38:31.462Z,3.30
2018-12-20T08:40:58.965Z,3.40
2018-12-20T08:43:26.581Z,3.40
2018-12-20T08:45:54.112Z,3.40
2018-12-20T08:48:21.627Z,3.50
2018-12-20T08:50:49.801Z,3.50
2018-12-20T08:53:17.309Z,3.60
2018-12-20T08:55:44.841Z,3.60
2018-12-20T08:58:12.344Z,3.60
2018-12-20T09:00:40.021Z,3.70
2018-12-20T09:03:07.519Z,3.70
2018-12-20T09:05:35.040Z,3.70
2018-12-20T09:08:02.548Z,3.70
2018-12-20T09:10:30.055Z,3.70
2018-12-20T09:12:57.578Z,3.70
2018-12-20T09:15:25.118Z,3.70
2018-12-20T09:17:52.639Z,3.70
2018-12-20T09:20:20.163Z,3.70
2018-12-20T09:22:47.703Z,3.80
2018-12-20T09:25:15.218Z,3.80
2018-12-20T09:27:42.837Z,3.90
2018-12-20T09:30:10.380Z,3.90
2018-12-20T09:32:37.887Z,3.90
2018-12-20T09:35:05.577Z,3.90
2018-12-20T09:37:33.093Z,3.90
2018-12-20T09:40:00.600Z,4.00
2018-12-20T09:42:28.121Z,4.00
2018-12-20T09:44:55.666Z,4.10
2018-12-20T09:47:28.894Z,4.10
2018-12-20T09:49:56.648Z,4.20
2018-12-20T09:52:24.522Z,4.40
2018-12-20T09:54:52.094Z,4.50
2018-12-20T09:57:20.047Z,4.60
2018-12-20T09:59:47.566Z,4.80
2018-12-20T10:02:15.111Z,4.90
2018-12-20T10:04:43.271Z,4.90
2018-12-20T10:07:10.796Z,5.10
2018-12-20T10:09:38.391Z,5.20
2018-12-20T10:12:05.897Z,5.40
2018-12-20T10:14:33.523Z,5.70
2018-12-20T10:17:01.056Z,6.20
2018-12-20T10:19:28.652Z,6.90
2018-12-20T10:21:56.166Z,7.60
2018-12-20T10:24:23.688Z,8.20
2018-12-20T10:26:51.192Z,8.30
2018-12-20T10:29:18.690Z,8.20
2018-12-20T10:31:46.218Z,7.90
2018-12-20T10:34:13.833Z,7.70
2018-12-20T10:36:41.355Z,7.40
2018-12-20T10:39:08.930Z,7.30
2018-12-20T10:41:36.480Z,7.30
2018-12-20T10:44:04.080Z,7.30
2018-12-20T10:46:31.615Z,7.30
2018-12-20T10:48:59.155Z,7.40
2018-12-20T10:51:26.663Z,7.40
2018-12-20T10:53:54.173Z,7.30
2018-12-20T10:56:22.093Z,7.20
2018-12-20T10:58:49.599Z,7.10
2018-12-20T11:01:22.800Z,7.00
2018-12-20T11:03:52.491Z,7.00
2018-12-20T11:06:25.690Z,6.90
2018-12-20T11:08:58.839Z,6.80
2018-12-20T11:11:28.344Z,6.70
2018-12-20T11:13:55.957Z,6.80
2018-12-20T11:16:23.519Z,6.70
2018-12-20T11:18:51.035Z,6.60
2018-12-20T11:21:18.765Z,6.60
2018-12-20T11:23:46.281Z,6.60
2018-12-20T11:26:13.806Z,6.60
2018-12-20T11:28:41.341Z,6.60
2018-12-20T11:31:10.922Z,6.50
2018-12-20T11:33:38.518Z,6.40
2018-12-20T11:36:06.096Z,6.40
2018-12-20T11:38:33.635Z,6.40
2018-12-20T11:41:01.156Z,6.40
2018-12-20T11:43:28.671Z,6.40
2018-12-20T11:45:56.197Z,6.40
2018-12-20T11:48:23.702Z,6.40
2018-12-20T11:50:51.230Z,6.40
2018-12-20T11:53:18.727Z,6.40
2018-12-20T11:55:46.294Z,6.40
2018-12-20T11:58:13.819Z,6.40
2018-12-20T12:00:41.521Z,6.40
2018-12-20T12:03:09.037Z,6.40
2018-12-20T12:05:36.565Z,6.40
2018-12-20T12:08:04.523Z,6.50
2018-12-20T12:10:32.065Z,6.50
2018-12-20T12:12:59.618Z,6.50
2018-12-20T12:15:27.132Z,6.50
2018-12-20T12:17:54.652Z,6.40
2018-12-20T12:20:22.152Z,6.40
2018-12-20T12:22:49.669Z,6.40
2018-12-20T12:25:17.460Z,6.40
2018-12-20T12:27:45.144Z,6.40
2018-12-20T12:30:12.650Z,6.40
2018-12-20T12:32:40.148Z,6.30
2018-12-20T12:35:07.654Z,6.30
2018-12-20T12:37:35.171Z,6.30
2018-12-20T12:40:03.350Z,6.30
2018-12-20T12:42:30.863Z,6.20
2018-12-20T12:44:58.387Z,6.20
2018-12-20T12:47:31.806Z,6.20
2018-12-20T12:49:59.314Z,6.20
2018-12-20T12:52:26.851Z,6.30
2018-12-20T12:54:54.377Z,6.30
2018-12-20T12:57:22.442Z,6.40
2018-12-20T12:59:50.135Z,6.30
2018-12-20T13:02:17.670Z,6.40
2018-12-20T13:04:45.177Z,6.40
2018-12-20T13:07:12.687Z,6.40
2018-12-20T13:09:40.203Z,6.30
2018-12-20T13:12:07.733Z,6.30
2018-12-20T13:14:35.254Z,6.30
2018-12-20T13:17:02.777Z,6.30
2018-12-20T13:19:30.283Z,6.30
2018-12-20T13:21:57.783Z,6.30
2018-12-20T13:24:25.295Z,6.20
2018-12-20T13:26:52.833Z,6.30
2018-12-20T13:29:20.419Z,6.30
2018-12-20T13:31:47.959Z,6.20
2018-12-20T13:34:15.835Z,6.20
2018-12-20T13:36:43.376Z,6.20
2018-12-20T13:39:10.890Z,6.20
2018-12-20T13:41:38.399Z,6.30
2018-12-20T13:44:05.907Z,6.30
2018-12-20T13:46:33.452Z,6.30
2018-12-20T13:49:00.967Z,6.30
2018-12-20T13:51:28.470Z,6.30
2018-12-20T13:53:56.007Z,6.30
2018-12-20T13:56:23.552Z,6.30
2018-12-20T13:58:51.090Z,6.30
2018-12-20T14:01:18.611Z,6.30
2018-12-20T14:03:46.393Z,6.30
2018-12-20T14:06:13.991Z,6.30
2018-12-20T14:08:41.513Z,6.30
2018-12-20T14:11:09.032Z,6.40
2018-12-20T14:13:36.567Z,6.40
2018-12-20T14:16:05.445Z,6.60
2018-12-20T14:18:33.136Z,6.70
2018-12-20T14:21:00.730Z,6.60
2018-12-20T14:23:28.258Z,6.50
2018-12-20T14:25:55.764Z,6.40
2018-12-20T14:28:23.289Z,6.30
2018-12-20T14:30:51.018Z,6.20
2018-12-20T14:33:18.646Z,6.20
2018-12-20T14:35:46.166Z,6.10
2018-12-20T14:38:13.680Z,6.10
2018-12-20T14:40:41.202Z,6.00
2018-12-20T14:43:08.786Z,5.90
2018-12-20T14:45:36.302Z,5.80
2018-12-20T14:48:03.835Z,5.80
2018-12-20T14:50:31.618Z,5.70
2018-12-20T14:52:59.198Z,5.60
2018-12-20T14:55:26.801Z,5.50
2018-12-20T14:57:54.399Z,5.50
2018-12-20T15:00:22.016Z,5.40
2018-12-20T15:02:49.533Z,5.30
2018-12-20T15:05:17.115Z,5.30
2018-12-20T15:07:44.631Z,5.20
2018-12-20T15:10:12.264Z,5.10
2018-12-20T15:12:39.859Z,5.10
2018-12-20T15:15:07.741Z,5.00
2018-12-20T15:17:37.042Z,4.90
2018-12-20T15:20:06.602Z,4.90
2018-12-20T15:22:34.198Z,4.80
2018-12-20T15:25:01.798Z,4.80
2018-12-20T15:27:29.315Z,4.70
2018-12-20T15:29:56.837Z,4.70
2018-12-20T15:32:24.348Z,4.60
2018-12-20T15:34:51.873Z,4.60
2018-12-20T15:37:19.434Z,4.50
2018-12-20T15:39:47.002Z,4.50
2018-12-20T15:42:14.538Z,4.50
2018-12-20T15:44:42.060Z,4.40
2018-12-20T15:47:09.659Z,4.30
2018-12-20T15:49:42.004Z,4.30
2018-12-20T15:52:06.832Z,4.20
2018-12-20T15:54:34.593Z,4.10
2018-12-20T15:57:02.119Z,4.10
2018-12-20T15:59:29.646Z,4.10
2018-12-20T16:01:57.184Z,4.10
2018-12-20T16:04:24.696Z,4.00
2018-12-20T16:06:52.623Z,3.90
2018-12-20T16:09:20.341Z,3.90
2018-12-20T16:11:47.843Z,3.90
2018-12-20T16:14:15.349Z,3.80
2018-12-20T16:16:42.897Z,3.70
2018-12-20T16:19:10.456Z,3.70
2018-12-20T16:21:37.978Z,3.60
2018-12-20T16:24:05.496Z,3.50
2018-12-20T16:26:33.050Z,3.50
2018-12-20T16:29:00.550Z,3.50
2018-12-20T16:31:28.087Z,3.40
2018-12-20T16:33:56.268Z,3.40
2018-12-20T16:36:24.043Z,3.40
2018-12-20T16:38:51.619Z,3.30
2018-12-20T16:41:19.126Z,3.30
2018-12-20T16:43:46.640Z,3.20
2018-12-20T16:46:14.272Z,3.20
2018-12-20T16:48:41.836Z,3.20
2018-12-20T16:51:09.416Z,3.20
2018-12-20T16:53:36.965Z,3.20
2018-12-20T16:56:04.500Z,3.10
2018-12-20T16:58:32.021Z,3.10
2018-12-20T17:00:59.542Z,3.20
2018-12-20T17:03:27.088Z,3.20
2018-12-20T17:05:54.665Z,3.20
2018-12-20T17:08:22.207Z,3.10
2018-12-20T17:10:49.936Z,3.10
2018-12-20T17:13:17.472Z,3.10
2018-12-20T17:15:44.996Z,3.20
2018-12-20T17:18:12.540Z,3.20
2018-12-20T17:20:40.072Z,3.10
2018-12-20T17:23:07.588Z,3.10
2018-12-20T17:25:35.091Z,3.10
2018-12-20T17:28:02.606Z,3.10
2018-12-20T17:30:30.130Z,3.20
2018-12-20T17:32:57.655Z,3.20
2018-12-20T17:35:25.152Z,3.10
2018-12-20T17:37:52.668Z,3.10
2018-12-20T17:40:20.283Z,3.10
2018-12-20T17:42:47.800Z,3.10
2018-12-20T17:45:15.414Z,3.10
2018-12-20T17:47:43.005Z,3.10
2018-12-20T17:50:10.515Z,3.10
2018-12-20T17:52:38.034Z,3.10
2018-12-20T17:55:06.308Z,3.20
2018-12-20T17:57:33.957Z,3.20
2018-12-20T18:00:01.845Z,3.20
2018-12-20T18:02:29.394Z,3.20
2018-12-20T18:04:56.924Z,3.20
2018-12-20T18:07:24.468Z,3.20
2018-12-20T18:09:52.019Z,3.00
2018-12-20T18:12:19.554Z,3.00
2018-12-20T18:14:47.085Z,3.00
2018-12-20T18:17:14.617Z,2.90
2018-12-20T18:19:42.127Z,2.90
2018-12-20T18:22:09.779Z,2.90
2018-12-20T18:24:37.420Z,3.00
2018-12-20T18:27:05.039Z,2.90
2018-12-20T18:29:32.552Z,2.90
2018-12-20T18:32:00.303Z,2.90
2018-12-20T18:34:27.936Z,2.80
2018-12-20T18:36:55.452Z,2.80
2018-12-20T18:39:22.963Z,2.70
2018-12-20T18:41:50.489Z,2.70
2018-12-20T18:44:18.013Z,2.60
2018-12-20T18:46:45.604Z,2.60
2018-12-20T18:49:13.195Z,2.60
2018-12-20T18:51:40.791Z,2.60
2018-12-20T18:54:08.339Z,2.60
2018-12-20T18:56:35.858Z,2.60
2018-12-20T18:59:03.588Z,2.60
2018-12-20T19:01:31.093Z,2.70
2018-12-20T19:03:58.626Z,2.70
2018-12-20T19:06:26.177Z,2.70
2018-12-20T19:08:53.740Z,2.80
2018-12-20T19:11:21.258Z,2.70
2018-12-20T19:13:48.829Z,2.70
2018-12-20T19:16:16.539Z,2.70
2018-12-20T19:18:44.061Z,2.70
2018-12-20T19:21:11.704Z,2.60
2018-12-20T19:23:39.535Z,2.60
2018-12-20T19:26:07.875Z,2.60
2018-12-20T19:28:35.402Z,2.60
2018-12-20T19:31:03.011Z,2.60
2018-12-20T19:33:30.542Z,2.60
2018-12-20T19:35:58.054Z,2.60
2018-12-20T19:38:25.604Z,2.60
2018-12-20T19:40:53.216Z,2.60
2018-12-20T19:43:20.765Z,2.70
2018-12-20T19:45:48.449Z,2.70
2018-12-20T19:48:15.975Z,2.70
2018-12-20T19:50:43.494Z,2.70
2018-12-20T19:53:11.131Z,2.70
2018-12-20T19:55:38.649Z,2.70
2018-12-20T19:58:06.480Z,2.70
2018-12-20T20:00:34.035Z,2.80
2018-12-20T20:03:01.554Z,2.80
2018-12-20T20:05:29.077Z,2.70
2018-12-20T20:07:56.726Z,2.70
2018-12-20T20:10:24.248Z,2.80
2018-12-20T20:12:51.859Z,2.70
2018-12-20T20:15:19.401Z,2.70
2018-12-20T20:17:46.917Z,2.70
2018-12-20T20:20:14.643Z,2.70
2018-12-20T20:22:42.318Z,2.70
2018-12-20T20:25:10.095Z,2.70
2018-12-20T20:27:37.611Z,2.70
2018-12-20T20:30:09.824Z,2.70
2018-12-20T20:32:37.602Z,2.70
2018-12-20T20:35:07.754Z,2.70
2018-12-20T20:37:35.393Z,2.70
2018-12-20T20:40:03.559Z,2.80
2018-12-20T20:42:31.088Z,2.80
2018-12-20T20:44:58.603Z,2.80
2018-12-20T20:47:26.122Z,2.90
2018-12-20T20:49:53.643Z,2.90
2018-12-20T20:52:21.183Z,3.00
2018-12-20T20:54:48.699Z,3.00
2018-12-20T20:57:16.614Z,3.00
2018-12-20T20:59:50.821Z,3.00
2018-12-20T21:02:13.679Z,3.00
2018-12-20T21:04:41.233Z,3.00
2018-12-20T21:07:08.776Z,3.00
2018-12-20T21:09:36.396Z,3.10
2018-12-20T21:12:04.153Z,3.10
2018-12-20T21:14:31.666Z,3.10
2018-12-20T21:16:59.190Z,3.20
2018-12-20T21:19:26.949Z,3.20
2018-12-20T21:21:54.463Z,3.20
2018-12-20T21:24:21.984Z,3.20
2018-12-20T21:26:49.512Z,3.10
2018-12-20T21:29:17.019Z,3.10
2018-12-20T21:31:44.535Z,3.00
2018-12-20T21:34:12.053Z,3.00
2018-12-20T21:36:39.594Z,2.90
2018-12-20T21:39:07.467Z,2.90
2018-12-20T21:41:34.997Z,2.90
2018-12-20T21:44:02.496Z,2.90
2018-12-20T21:46:30.059Z,2.90
2018-12-20T21:48:57.571Z,3.00
2018-12-20T21:51:25.191Z,3.00
2018-12-20T21:53:54.907Z,3.00
2018-12-20T21:56:22.339Z,3.00
2018-12-20T21:58:49.863Z,3.00
2018-12-20T22:01:17.390Z,3.00
2018-12-20T22:03:44.900Z,3.00
2018-12-20T22:06:12.414Z,3.00
2018-12-20T22:08:39.937Z,2.90
2018-12-20T22:11:07.460Z,2.90
2018-12-20T22:13:34.960Z,2.90
2018-12-20T22:16:02.513Z,2.90
2018-12-20T22:18:30.034Z,2.80
2018-12-20T22:20:57.582Z,2.80
2018-12-20T22:23:25.114Z,2.80
2018-12-20T22:25:52.726Z,2.80
2018-12-20T22:28:20.509Z,2.80
2018-12-20T22:30:48.017Z,2.80
2018-12-20T22:33:15.535Z,2.80
2018-12-20T22:35:43.046Z,2.80
2018-12-20T22:38:10.657Z,2.80
2018-12-20T22:40:38.172Z,2.80
2018-12-20T22:43:05.697Z,2.80
2018-12-20T22:45:33.226Z,2.90
2018-12-20T22:48:00.739Z,2.90
2018-12-20T22:50:28.253Z,2.90
2018-12-20T22:52:55.758Z,2.90
2018-12-20T22:55:23.520Z,2.90
2018-12-20T22:57:51.046Z,2.90
2018-12-20T23:00:18.553Z,3.00
2018-12-20T23:02:46.142Z,3.00
2018-12-20T23:05:13.666Z,3.00
2018-12-20T23:07:41.185Z,3.00
2018-12-20T23:10:08.891Z,3.00
2018-12-20T23:12:36.404Z,3.00
2018-12-20T23:15:04.658Z,3.00
2018-12-20T23:17:32.170Z,3.00
2018-12-20T23:19:59.765Z,3.00
2018-12-20T23:22:27.319Z,2.90
2018-12-20T23:24:54.854Z,2.90
2018-12-20T23:27:22.379Z,2.90
2018-12-20T23:29:49.879Z,2.80
2018-12-20T23:32:17.391Z,2.80
2018-12-20T23:34:44.894Z,2.80
2018-12-20T23:37:12.501Z,2.80
2018-12-20T23:39:40.011Z,2.80
2018-12-20T23:42:07.541Z,2.90
2018-12-20T23:44:35.063Z,2.90
2018-12-20T23:47:02.575Z,2.90
2018-12-20T23:49:30.135Z,3.00
2018-12-20T23:51:57.705Z,3.10
2018-12-20T23:54:25.403Z,3.10
2018-12-20T23:56:52.911Z,3.20
2018-12-20T23:59:20.450Z,3.20
